sensor_id;sensor_type;location;lat;lon;timestamp;pressure;altitude;pressure_sealevel;temperature;humidity
37298;BME280;30517;51.932;4.278;2023-01-29T00:00:32;103083.81;;;6.34;67.44
37298;BME280;30517;51.932;4.278;2023-01-29T00:03:14;103084.13;;;6.40;67.27
37298;BME280;30517;51.932;4.278;2023-01-29T00:05:55;103032.19;;;6.15;67.25
37298;BME280;30517;51.932;4.278;2023-01-29T00:08:37;103063.91;;;6.37;67.43
37298;BME280;30517;51.932;4.278;2023-01-29T00:11:18;103033.31;;;6.20;67.36
37298;BME280;30517;51.932;4.278;2023-01-29T00:13:59;103050.31;;;6.28;67.23
37298;BME280;30517;51.932;4.278;2023-01-29T00:16:40;103060.31;;;6.35;67.38
37298;BME280;30517;51.932;4.278;2023-01-29T00:19:21;103064.72;;;6.36;67.25
37298;BME280;30517;51.932;4.278;2023-01-29T00:22:02;103059.47;;;6.36;67.42
37298;BME280;30517;51.932;4.278;2023-01-29T00:24:43;103067.19;;;6.33;67.50
37298;BME280;30517;51.932;4.278;2023-01-29T00:27:23;103060.16;;;6.32;67.43
37298;BME280;30517;51.932;4.278;2023-01-29T00:30:05;103061.03;;;6.33;67.37
37298;BME280;30517;51.932;4.278;2023-01-29T00:32:51;103049.34;;;6.26;67.75
37298;BME280;30517;51.932;4.278;2023-01-29T00:35:33;103036.69;;;6.17;67.34
37298;BME280;30517;51.932;4.278;2023-01-29T00:38:14;103012.47;;;6.05;67.24
37298;BME280;30517;51.932;4.278;2023-01-29T00:40:54;103043.50;;;6.32;67.42
37298;BME280;30517;51.932;4.278;2023-01-29T00:43:54;103044.28;;;6.29;67.85
37298;BME280;30517;51.932;4.278;2023-01-29T00:46:54;103043.59;;;6.33;67.52
37298;BME280;30517;51.932;4.278;2023-01-29T00:49:35;103013.25;;;6.20;67.90
37298;BME280;30517;51.932;4.278;2023-01-29T00:52:15;103006.81;;;6.14;67.59
37298;BME280;30517;51.932;4.278;2023-01-29T00:55:06;103044.56;;;6.35;67.34
37298;BME280;30517;51.932;4.278;2023-01-29T00:57:47;103034.16;;;6.37;67.53
37298;BME280;30517;51.932;4.278;2023-01-29T01:00:27;103015.22;;;6.25;67.40
37298;BME280;30517;51.932;4.278;2023-01-29T01:03:09;103017.88;;;6.26;67.38
37298;BME280;30517;51.932;4.278;2023-01-29T01:05:50;103002.53;;;6.16;67.28
37298;BME280;30517;51.932;4.278;2023-01-29T01:08:31;103024.34;;;6.33;67.45
37298;BME280;30517;51.932;4.278;2023-01-29T01:11:32;103028.59;;;6.31;67.39
37298;BME280;30517;51.932;4.278;2023-01-29T01:14:13;103027.78;;;6.32;67.47
37298;BME280;30517;51.932;4.278;2023-01-29T01:16:54;103022.47;;;6.30;67.34
37298;BME280;30517;51.932;4.278;2023-01-29T01:19:34;103028.69;;;6.32;67.70
37298;BME280;30517;51.932;4.278;2023-01-29T01:22:15;103027.88;;;6.33;67.60
37298;BME280;30517;51.932;4.278;2023-01-29T01:24:56;103025.34;;;6.35;67.59
37298;BME280;30517;51.932;4.278;2023-01-29T01:27:37;103016.25;;;6.28;67.32
37298;BME280;30517;51.932;4.278;2023-01-29T01:30:20;103035.63;;;6.32;67.57
37298;BME280;30517;51.932;4.278;2023-01-29T01:33:01;103026.69;;;6.27;67.72
37298;BME280;30517;51.932;4.278;2023-01-29T01:35:42;102999.69;;;6.11;67.51
37298;BME280;30517;51.932;4.278;2023-01-29T01:38:22;103038.44;;;6.35;67.53
37298;BME280;30517;51.932;4.278;2023-01-29T01:41:03;103047.25;;;6.37;67.52
37298;BME280;30517;51.932;4.278;2023-01-29T01:43:56;103045.47;;;6.36;67.27
37298;BME280;30517;51.932;4.278;2023-01-29T01:46:37;103037.31;;;6.30;67.66
37298;BME280;30517;51.932;4.278;2023-01-29T01:49:18;103037.59;;;6.36;67.41
37298;BME280;30517;51.932;4.278;2023-01-29T01:52:00;103011.44;;;6.19;67.25
37298;BME280;30517;51.932;4.278;2023-01-29T01:54:41;103033.59;;;6.26;67.57
37298;BME280;30517;51.932;4.278;2023-01-29T01:57:24;103046.44;;;6.38;67.74
37298;BME280;30517;51.932;4.278;2023-01-29T02:00:10;103015.13;;;6.23;67.67
37298;BME280;30517;51.932;4.278;2023-01-29T02:02:53;103046.38;;;6.36;67.56
37298;BME280;30517;51.932;4.278;2023-01-29T02:05:54;103035.63;;;6.32;67.74
37298;BME280;30517;51.932;4.278;2023-01-29T02:09:01;103028.59;;;6.31;67.30
37298;BME280;30517;51.932;4.278;2023-01-29T02:12:07;103026.00;;;6.31;67.49
37298;BME280;30517;51.932;4.278;2023-01-29T02:14:50;103021.59;;;6.30;67.36
37298;BME280;30517;51.932;4.278;2023-01-29T02:17:31;103016.41;;;6.31;67.59
37298;BME280;30517;51.932;4.278;2023-01-29T02:20:28;103010.25;;;6.31;67.73
37298;BME280;30517;51.932;4.278;2023-01-29T02:26:44;103024.19;;;6.30;67.63
37298;BME280;30517;51.932;4.278;2023-01-29T02:35:32;103018.06;;;6.29;67.82
37298;BME280;30517;51.932;4.278;2023-01-29T02:38:20;103017.22;;;6.30;67.49
37298;BME280;30517;51.932;4.278;2023-01-29T02:46:34;103024.50;;;6.36;67.47
37298;BME280;30517;51.932;4.278;2023-01-29T02:52:25;103026.28;;;6.37;67.48
37298;BME280;30517;51.932;4.278;2023-01-29T02:55:22;103023.50;;;6.34;67.44
37298;BME280;30517;51.932;4.278;2023-01-29T02:58:35;103017.28;;;6.32;67.57
37298;BME280;30517;51.932;4.278;2023-01-29T03:01:22;103020.75;;;6.31;67.82
37298;BME280;30517;51.932;4.278;2023-01-29T03:04:10;103011.91;;;6.29;67.55
37298;BME280;30517;51.932;4.278;2023-01-29T03:07:02;103010.25;;;6.31;67.40
37298;BME280;30517;51.932;4.278;2023-01-29T03:09:46;103004.13;;;6.30;67.56
37298;BME280;30517;51.932;4.278;2023-01-29T03:12:31;102958.22;;;6.03;67.42
37298;BME280;30517;51.932;4.278;2023-01-29T03:15:19;103012.03;;;6.32;67.54
37298;BME280;30517;51.932;4.278;2023-01-29T03:18:10;103017.38;;;6.33;67.72
37298;BME280;30517;51.932;4.278;2023-01-29T03:20:57;103020.91;;;6.34;67.56
37298;BME280;30517;51.932;4.278;2023-01-29T03:23:40;103001.41;;;6.29;67.71
37298;BME280;30517;51.932;4.278;2023-01-29T03:26:42;103004.38;;;6.35;67.68
37298;BME280;30517;51.932;4.278;2023-01-29T03:29:44;102997.09;;;6.29;67.45
37298;BME280;30517;51.932;4.278;2023-01-29T03:32:45;102998.94;;;6.32;67.30
37298;BME280;30517;51.932;4.278;2023-01-29T03:35:29;103003.53;;;6.36;67.40
37298;BME280;30517;51.932;4.278;2023-01-29T03:38:18;102996.50;;;6.35;67.42
37298;BME280;30517;51.932;4.278;2023-01-29T03:41:01;102996.50;;;6.35;67.51
37298;BME280;30517;51.932;4.278;2023-01-29T03:46:30;102977.44;;;6.21;67.24
37298;BME280;30517;51.932;4.278;2023-01-29T03:49:40;102999.91;;;6.34;67.51
37298;BME280;30517;51.932;4.278;2023-01-29T03:52:39;102994.78;;;6.35;67.35
37298;BME280;30517;51.932;4.278;2023-01-29T03:55:39;102587.03;;;4.03;67.28
37298;BME280;30517;51.932;4.278;2023-01-29T03:58:38;102970.66;;;6.25;67.79
37298;BME280;30517;51.932;4.278;2023-01-29T04:01:23;102967.88;;;6.22;67.68
37298;BME280;30517;51.932;4.278;2023-01-29T04:04:17;102982.41;;;6.33;67.63
37298;BME280;30517;51.932;4.278;2023-01-29T04:07:04;102941.06;;;6.09;67.88
37298;BME280;30517;51.932;4.278;2023-01-29T04:09:54;102975.34;;;6.32;67.76
37298;BME280;30517;51.932;4.278;2023-01-29T04:12:49;102970.09;;;6.32;67.61
37298;BME280;30517;51.932;4.278;2023-01-29T04:15:35;102944.31;;;6.22;67.73
37298;BME280;30517;51.932;4.278;2023-01-29T04:18:18;102961.16;;;6.27;67.30
37298;BME280;30517;51.932;4.278;2023-01-29T04:21:00;102974.56;;;6.33;67.69
37298;BME280;30517;51.932;4.278;2023-01-29T04:23:40;102962.94;;;6.28;67.70
37298;BME280;30517;51.932;4.278;2023-01-29T04:32:46;102929.31;;;6.19;67.56
37298;BME280;30517;51.932;4.278;2023-01-29T04:41:36;102946.38;;;6.29;67.83
37298;BME280;30517;51.932;4.278;2023-01-29T04:47:34;102930.34;;;6.23;67.88
37298;BME280;30517;51.932;4.278;2023-01-29T04:50:25;102922.03;;;6.31;67.51
37298;BME280;30517;51.932;4.278;2023-01-29T04:53:12;102929.09;;;6.32;67.54
37298;BME280;30517;51.932;4.278;2023-01-29T04:56:07;102919.28;;;6.28;67.75
37298;BME280;30517;51.932;4.278;2023-01-29T04:59:11;102922.88;;;6.30;67.67
37298;BME280;30517;51.932;4.278;2023-01-29T05:01:54;102922.94;;;6.32;67.46
37298;BME280;30517;51.932;4.278;2023-01-29T05:04:37;102920.50;;;6.35;67.24
37298;BME280;30517;51.932;4.278;2023-01-29T05:07:20;102922.28;;;6.36;67.43
37298;BME280;30517;51.932;4.278;2023-01-29T05:10:04;102929.28;;;6.37;67.40
37298;BME280;30517;51.932;4.278;2023-01-29T05:12:50;102880.88;;;6.11;67.47
37298;BME280;30517;51.932;4.278;2023-01-29T05:15:38;102913.44;;;6.34;67.39
37298;BME280;30517;51.932;4.278;2023-01-29T05:18:19;102916.94;;;6.34;67.74
37298;BME280;30517;51.932;4.278;2023-01-29T05:21:04;102895.63;;;6.27;67.30
37298;BME280;30517;51.932;4.278;2023-01-29T05:23:45;102897.41;;;6.28;67.63
37298;BME280;30517;51.932;4.278;2023-01-29T05:26:36;102859.84;;;6.09;67.62
37298;BME280;30517;51.932;4.278;2023-01-29T05:29:36;102902.13;;;6.35;67.54
37298;BME280;30517;51.932;4.278;2023-01-29T05:32:18;102887.59;;;6.24;67.44
37298;BME280;30517;51.932;4.278;2023-01-29T05:34:59;102872.72;;;6.23;67.31
37298;BME280;30517;51.932;4.278;2023-01-29T05:37:39;102878.31;;;6.30;67.41
37298;BME280;30517;51.932;4.278;2023-01-29T05:40:20;102880.03;;;6.30;67.56
37298;BME280;30517;51.932;4.278;2023-01-29T05:43:02;102876.72;;;6.34;67.35
37298;BME280;30517;51.932;4.278;2023-01-29T05:45:59;102884.59;;;6.34;67.35
37298;BME280;30517;51.932;4.278;2023-01-29T05:48:40;102865.59;;;6.20;67.52
37298;BME280;30517;51.932;4.278;2023-01-29T05:51:21;102882.94;;;6.36;67.48
37298;BME280;30517;51.932;4.278;2023-01-29T05:54:02;102868.44;;;6.25;67.45
37298;BME280;30517;51.932;4.278;2023-01-29T05:56:43;102856.88;;;6.21;67.33
37298;BME280;30517;51.932;4.278;2023-01-29T05:59:24;102876.97;;;6.38;67.36
37298;BME280;30517;51.932;4.278;2023-01-29T06:02:05;102851.09;;;6.09;67.50
37298;BME280;30517;51.932;4.278;2023-01-29T06:04:46;102886.47;;;6.36;67.61
37298;BME280;30517;51.932;4.278;2023-01-29T06:07:26;102889.09;;;6.36;67.50
37298;BME280;30517;51.932;4.278;2023-01-29T06:10:08;102859.47;;;6.19;67.71
37298;BME280;30517;51.932;4.278;2023-01-29T06:12:48;102867.75;;;6.29;67.54
37298;BME280;30517;51.932;4.278;2023-01-29T06:15:29;102838.66;;;6.05;67.94
37298;BME280;30517;51.932;4.278;2023-01-29T06:18:10;102895.06;;;6.34;67.74
37298;BME280;30517;51.932;4.278;2023-01-29T06:23:48;102877.44;;;6.30;67.54
37298;BME280;30517;51.932;4.278;2023-01-29T06:26:28;102818.28;;;5.99;67.73
37298;BME280;30517;51.932;4.278;2023-01-29T06:29:09;102838.06;;;6.10;67.68
37298;BME280;30517;51.932;4.278;2023-01-29T06:31:50;102871.34;;;6.31;67.86
37298;BME280;30517;51.932;4.278;2023-01-29T06:34:31;102868.06;;;6.35;67.66
37298;BME280;30517;51.932;4.278;2023-01-29T06:37:11;102828.06;;;6.21;67.59
37298;BME280;30517;51.932;4.278;2023-01-29T06:39:52;102854.97;;;6.35;67.38
37298;BME280;30517;51.932;4.278;2023-01-29T06:42:36;102863.63;;;6.34;67.43
37298;BME280;30517;51.932;4.278;2023-01-29T06:45:17;102856.50;;;6.31;67.76
37298;BME280;30517;51.932;4.278;2023-01-29T06:47:58;102835.66;;;6.15;67.45
37298;BME280;30517;51.932;4.278;2023-01-29T06:50:38;102815.44;;;6.12;67.59
37298;BME280;30517;51.932;4.278;2023-01-29T06:53:20;102812.63;;;6.08;67.33
37298;BME280;30517;51.932;4.278;2023-01-29T06:56:01;102857.72;;;6.38;67.67
37298;BME280;30517;51.932;4.278;2023-01-29T06:58:42;102857.78;;;6.39;67.21
37298;BME280;30517;51.932;4.278;2023-01-29T07:01:23;102847.28;;;6.39;67.26
37298;BME280;30517;51.932;4.278;2023-01-29T07:04:04;102853.44;;;6.40;67.50
37298;BME280;30517;51.932;4.278;2023-01-29T07:06:48;102834.94;;;6.37;67.42
37298;BME280;30517;51.932;4.278;2023-01-29T07:09:33;102811.19;;;6.14;67.65
37298;BME280;30517;51.932;4.278;2023-01-29T07:12:14;102851.34;;;6.33;67.55
37298;BME280;30517;51.932;4.278;2023-01-29T07:14:55;102849.91;;;6.39;67.54
37298;BME280;30517;51.932;4.278;2023-01-29T07:17:36;102849.84;;;6.38;67.26
37298;BME280;30517;51.932;4.278;2023-01-29T07:20:17;102850.59;;;6.35;67.35
37298;BME280;30517;51.932;4.278;2023-01-29T07:22:57;102856.88;;;6.39;67.50
37298;BME280;30517;51.932;4.278;2023-01-29T07:25:39;102840.72;;;6.30;67.60
37298;BME280;30517;51.932;4.278;2023-01-29T07:28:20;102855.16;;;6.39;67.34
37298;BME280;30517;51.932;4.278;2023-01-29T07:31:01;102834.66;;;6.31;67.55
37298;BME280;30517;51.932;4.278;2023-01-29T07:33:42;102835.50;;;6.30;67.43
37298;BME280;30517;51.932;4.278;2023-01-29T07:36:24;102826.22;;;6.18;67.50
37298;BME280;30517;51.932;4.278;2023-01-29T07:39:04;102806.44;;;6.07;67.61
37298;BME280;30517;51.932;4.278;2023-01-29T07:41:45;102845.97;;;6.30;67.38
37298;BME280;30517;51.932;4.278;2023-01-29T07:44:26;102828.00;;;6.19;67.68
37298;BME280;30517;51.932;4.278;2023-01-29T07:47:07;102856.88;;;6.39;67.55
37298;BME280;30517;51.932;4.278;2023-01-29T07:49:47;102816.56;;;6.17;67.40
37298;BME280;30517;51.932;4.278;2023-01-29T07:52:30;102855.16;;;6.39;67.55
37298;BME280;30517;51.932;4.278;2023-01-29T07:55:11;102835.41;;;6.28;67.69
37298;BME280;30517;51.932;4.278;2023-01-29T07:57:58;102850.75;;;6.38;67.23
37298;BME280;30517;51.932;4.278;2023-01-29T08:00:39;102831.13;;;6.30;67.42
37298;BME280;30517;51.932;4.278;2023-01-29T08:03:20;102844.66;;;6.39;67.51
37298;BME280;30517;51.932;4.278;2023-01-29T08:06:02;102816.69;;;6.20;67.63
37298;BME280;30517;51.932;4.278;2023-01-29T08:08:43;102840.41;;;6.41;67.35
37298;BME280;30517;51.932;4.278;2023-01-29T08:11:24;102836.94;;;6.42;66.98
37298;BME280;30517;51.932;4.278;2023-01-29T08:14:05;102842.19;;;6.42;67.24
37298;BME280;30517;51.932;4.278;2023-01-29T08:16:47;102826.66;;;6.28;67.47
37298;BME280;30517;51.932;4.278;2023-01-29T08:19:28;102838.47;;;6.37;67.50
37298;BME280;30517;51.932;4.278;2023-01-29T08:22:09;102819.25;;;6.19;67.43
37298;BME280;30517;51.932;4.278;2023-01-29T08:24:49;102834.78;;;6.34;67.66
37298;BME280;30517;51.932;4.278;2023-01-29T08:27:30;102832.16;;;6.34;67.78
37298;BME280;30517;51.932;4.278;2023-01-29T08:30:11;102826.66;;;6.28;67.88
37298;BME280;30517;51.932;4.278;2023-01-29T08:32:52;102816.84;;;6.24;67.52
37298;BME280;30517;51.932;4.278;2023-01-29T08:35:33;102820.03;;;6.36;67.96
37298;BME280;30517;51.932;4.278;2023-01-29T08:38:14;102808.44;;;6.31;67.58
37298;BME280;30517;51.932;4.278;2023-01-29T08:41:41;102810.78;;;6.25;67.06
37298;BME280;30517;51.932;4.278;2023-01-29T08:44:22;102811.06;;;6.31;67.33
37298;BME280;30517;51.932;4.278;2023-01-29T08:47:03;102780.75;;;6.18;67.52
37298;BME280;30517;51.932;4.278;2023-01-29T08:49:45;102812.25;;;6.37;67.35
37298;BME280;30517;51.932;4.278;2023-01-29T08:52:26;102791.59;;;6.26;67.35
37298;BME280;30517;51.932;4.278;2023-01-29T08:55:07;102809.84;;;6.42;67.49
37298;BME280;30517;51.932;4.278;2023-01-29T08:57:48;102801.03;;;6.40;67.34
37298;BME280;30517;51.932;4.278;2023-01-29T09:00:29;102807.16;;;6.40;67.39
37298;BME280;30517;51.932;4.278;2023-01-29T09:03:11;102802.84;;;6.42;67.27
37298;BME280;30517;51.932;4.278;2023-01-29T09:05:51;102815.97;;;6.42;67.30
37298;BME280;30517;51.932;4.278;2023-01-29T09:08:32;102788.44;;;6.33;67.46
37298;BME280;30517;51.932;4.278;2023-01-29T09:11:13;102786.34;;;6.26;67.64
37298;BME280;30517;51.932;4.278;2023-01-29T09:13:54;102775.75;;;6.23;67.66
37298;BME280;30517;51.932;4.278;2023-01-29T09:16:35;102794.38;;;6.29;67.63
37298;BME280;30517;51.932;4.278;2023-01-29T09:19:16;102775.06;;;6.27;67.64
37298;BME280;30517;51.932;4.278;2023-01-29T09:21:56;102798.41;;;6.40;67.57
37298;BME280;30517;51.932;4.278;2023-01-29T09:24:37;102777.00;;;6.31;67.46
37298;BME280;30517;51.932;4.278;2023-01-29T09:27:18;102801.78;;;6.37;67.67
37298;BME280;30517;51.932;4.278;2023-01-29T09:29:59;102803.56;;;6.38;67.60
37298;BME280;30517;51.932;4.278;2023-01-29T09:32:40;102787.63;;;6.34;67.32
37298;BME280;30517;51.932;4.278;2023-01-29T09:35:21;102801.03;;;6.40;67.58
37298;BME280;30517;51.932;4.278;2023-01-29T09:38:03;102800.25;;;6.42;67.64
37298;BME280;30517;51.932;4.278;2023-01-29T09:41:16;102806.41;;;6.43;67.68
37298;BME280;30517;51.932;4.278;2023-01-29T09:44:09;102807.53;;;6.48;67.44
37298;BME280;30517;51.932;4.278;2023-01-29T09:46:52;102787.22;;;6.44;67.62
37298;BME280;30517;51.932;4.278;2023-01-29T09:49:39;102803.69;;;6.41;67.19
37298;BME280;30517;51.932;4.278;2023-01-29T09:52:25;102784.72;;;6.28;67.76
37298;BME280;30517;51.932;4.278;2023-01-29T09:58:33;102692.44;;;5.78;67.61
37298;BME280;30517;51.932;4.278;2023-01-29T10:01:22;102776.59;;;6.41;67.52
37298;BME280;30517;51.932;4.278;2023-01-29T10:04:35;102772.19;;;6.40;67.33
37298;BME280;30517;51.932;4.278;2023-01-29T10:07:37;102771.47;;;6.44;67.74
37298;BME280;30517;51.932;4.278;2023-01-29T10:10:32;102776.50;;;6.39;67.42
37298;BME280;30517;51.932;4.278;2023-01-29T10:23:00;102765.13;;;6.39;67.99
37298;BME280;30517;51.932;4.278;2023-01-29T10:25:45;102747.41;;;6.33;67.92
37298;BME280;30517;51.932;4.278;2023-01-29T10:28:42;102759.13;;;6.41;67.99
37298;BME280;30517;51.932;4.278;2023-01-29T10:31:29;102767.88;;;6.42;67.69
37298;BME280;30517;51.932;4.278;2023-01-29T10:34:26;102756.59;;;6.43;67.87
37298;BME280;30517;51.932;4.278;2023-01-29T10:37:22;102746.56;;;6.34;67.73
37298;BME280;30517;51.932;4.278;2023-01-29T10:40:18;102745.91;;;6.38;67.86
37298;BME280;30517;51.932;4.278;2023-01-29T10:43:41;102739.00;;;6.40;68.06
37298;BME280;30517;51.932;4.278;2023-01-29T10:49:41;102730.94;;;6.36;68.11
37298;BME280;30517;51.932;4.278;2023-01-29T10:55:56;102720.16;;;6.30;67.55
37298;BME280;30517;51.932;4.278;2023-01-29T10:58:45;102735.69;;;6.45;67.78
37298;BME280;30517;51.932;4.278;2023-01-29T11:01:28;102728.69;;;6.45;68.00
37298;BME280;30517;51.932;4.278;2023-01-29T11:04:10;102718.22;;;6.45;68.17
37298;BME280;30517;51.932;4.278;2023-01-29T11:06:51;102691.25;;;6.28;68.11
37298;BME280;30517;51.932;4.278;2023-01-29T11:09:53;102718.28;;;6.47;68.09
37298;BME280;30517;51.932;4.278;2023-01-29T11:12:37;102674.78;;;6.31;67.76
37298;BME280;30517;51.932;4.278;2023-01-29T11:15:23;102702.47;;;6.45;67.93
37298;BME280;30517;51.932;4.278;2023-01-29T11:18:13;102714.03;;;6.49;67.90
37298;BME280;30517;51.932;4.278;2023-01-29T11:21:03;102708.78;;;6.49;68.15
37298;BME280;30517;51.932;4.278;2023-01-29T11:23:44;102710.56;;;6.50;67.96
37298;BME280;30517;51.932;4.278;2023-01-29T11:26:25;102698.16;;;6.46;67.78
37298;BME280;30517;51.932;4.278;2023-01-29T11:29:33;102700.91;;;6.49;68.05
37298;BME280;30517;51.932;4.278;2023-01-29T11:32:31;102694.91;;;6.51;68.01
37298;BME280;30517;51.932;4.278;2023-01-29T11:38:15;102687.84;;;6.50;67.95
37298;BME280;30517;51.932;4.278;2023-01-29T11:41:06;102691.59;;;6.55;67.88
37298;BME280;30517;51.932;4.278;2023-01-29T11:43:47;102677.66;;;6.56;67.97
37298;BME280;30517;51.932;4.278;2023-01-29T11:46:28;102683.81;;;6.57;67.85
37298;BME280;30517;51.932;4.278;2023-01-29T11:49:20;102670.69;;;6.57;67.84
37298;BME280;30517;51.932;4.278;2023-01-29T11:52:05;102646.53;;;6.45;67.96
37298;BME280;30517;51.932;4.278;2023-01-29T11:57:36;102635.09;;;6.42;67.87
37298;BME280;30517;51.932;4.278;2023-01-29T12:00:31;102654.25;;;6.61;67.70
37298;BME280;30517;51.932;4.278;2023-01-29T12:06:34;102641.22;;;6.62;67.74
37298;BME280;30517;51.932;4.278;2023-01-29T12:09:16;102635.97;;;6.62;67.89
37298;BME280;30517;51.932;4.278;2023-01-29T12:12:16;102639.47;;;6.63;67.84
37298;BME280;30517;51.932;4.278;2023-01-29T12:15:08;102626.38;;;6.63;67.98
37298;BME280;30517;51.932;4.278;2023-01-29T12:20:58;102606.09;;;6.59;68.03
37298;BME280;30517;51.932;4.278;2023-01-29T12:26:54;102610.84;;;6.68;67.97
37298;BME280;30517;51.932;4.278;2023-01-29T12:32:54;102591.50;;;6.65;68.00
37298;BME280;30517;51.932;4.278;2023-01-29T12:35:44;102596.84;;;6.67;67.88
37298;BME280;30517;51.932;4.278;2023-01-29T12:38:27;102581.72;;;6.61;67.74
37298;BME280;30517;51.932;4.278;2023-01-29T12:41:25;102590.78;;;6.70;68.18
37298;BME280;30517;51.932;4.278;2023-01-29T12:44:37;102565.03;;;6.59;67.96
37298;BME280;30517;51.932;4.278;2023-01-29T12:47:21;102575.13;;;6.71;67.96
37298;BME280;30517;51.932;4.278;2023-01-29T12:50:13;102576.03;;;6.72;67.84
37298;BME280;30517;51.932;4.278;2023-01-29T12:53:06;102559.41;;;6.71;67.81
37298;BME280;30517;51.932;4.278;2023-01-29T12:55:59;102553.38;;;6.74;67.67
37298;BME280;30517;51.932;4.278;2023-01-29T12:58:46;102542.91;;;6.74;67.98
37298;BME280;30517;51.932;4.278;2023-01-29T13:01:32;102436.69;;;6.19;67.99
37298;BME280;30517;51.932;4.278;2023-01-29T13:04:40;102521.91;;;6.74;67.90
37298;BME280;30517;51.932;4.278;2023-01-29T13:07:23;102515.97;;;6.78;67.60
37298;BME280;30517;51.932;4.278;2023-01-29T13:10:11;102504.56;;;6.77;67.74
37298;BME280;30517;51.932;4.278;2023-01-29T13:13:15;102468.47;;;6.70;68.04
37298;BME280;30517;51.932;4.278;2023-01-29T13:16:04;102454.31;;;6.67;67.57
37298;BME280;30517;51.932;4.278;2023-01-29T13:18:50;102476.63;;;6.78;67.73
37298;BME280;30517;51.932;4.278;2023-01-29T13:21:35;102475.91;;;6.82;67.68
37298;BME280;30517;51.932;4.278;2023-01-29T13:24:20;102452.75;;;6.72;67.94
37298;BME280;30517;51.932;4.278;2023-01-29T13:27:02;102462.59;;;6.77;67.64
37298;BME280;30517;51.932;4.278;2023-01-29T13:29:43;102426.97;;;6.60;67.84
37298;BME280;30517;51.932;4.278;2023-01-29T13:32:31;102459.06;;;6.75;67.57
37298;BME280;30517;51.932;4.278;2023-01-29T13:35:16;102445.97;;;6.77;67.37
37298;BME280;30517;51.932;4.278;2023-01-29T13:37:58;102423.75;;;6.67;67.67
37298;BME280;30517;51.932;4.278;2023-01-29T13:40:47;102427.44;;;6.72;67.51
37298;BME280;30517;51.932;4.278;2023-01-29T13:43:34;102429.34;;;6.76;67.89
37298;BME280;30517;51.932;4.278;2023-01-29T13:46:17;102442.88;;;6.87;67.54
37298;BME280;30517;51.932;4.278;2023-01-29T13:49:00;102437.63;;;6.87;67.61
37298;BME280;30517;51.932;4.278;2023-01-29T13:51:44;102430.47;;;6.83;67.22
37298;BME280;30517;51.932;4.278;2023-01-29T13:54:25;102428.09;;;6.89;67.50
37298;BME280;30517;51.932;4.278;2023-01-29T13:57:47;102428.22;;;6.92;67.39
37298;BME280;30517;51.932;4.278;2023-01-29T14:13:55;102409.41;;;7.04;66.98
37298;BME280;30517;51.932;4.278;2023-01-29T14:16:36;102408.59;;;7.05;67.50
37298;BME280;30517;51.932;4.278;2023-01-29T14:19:17;102405.13;;;7.06;67.05
37298;BME280;30517;51.932;4.278;2023-01-29T14:21:59;102400.72;;;7.05;67.26
37298;BME280;30517;51.932;4.278;2023-01-29T14:24:41;102407.84;;;7.09;67.53
37298;BME280;30517;51.932;4.278;2023-01-29T14:27:23;102402.56;;;7.07;66.94
37298;BME280;30517;51.932;4.278;2023-01-29T14:30:07;102399.13;;;7.10;67.08
37298;BME280;30517;51.932;4.278;2023-01-29T14:32:49;102394.81;;;7.11;67.27
37298;BME280;30517;51.932;4.278;2023-01-29T14:35:31;102394.84;;;7.12;67.10
37298;BME280;30517;51.932;4.278;2023-01-29T14:38:13;102388.69;;;7.12;66.96
37298;BME280;30517;51.932;4.278;2023-01-29T14:41:03;102370.03;;;7.04;67.12
37298;BME280;30517;51.932;4.278;2023-01-29T14:43:48;102380.72;;;7.08;67.00
37298;BME280;30517;51.932;4.278;2023-01-29T14:49:48;102385.19;;;7.11;66.88
37298;BME280;30517;51.932;4.278;2023-01-29T14:52:38;102380.03;;;7.14;67.23
37298;BME280;30517;51.932;4.278;2023-01-29T14:55:28;102387.06;;;7.15;67.35
37298;BME280;30517;51.932;4.278;2023-01-29T14:58:13;102373.94;;;7.15;67.56
37298;BME280;30517;51.932;4.278;2023-01-29T15:00:57;102378.38;;;7.16;67.44
37298;BME280;30517;51.932;4.278;2023-01-29T15:03:44;102375.75;;;7.16;67.16
37298;BME280;30517;51.932;4.278;2023-01-29T15:06:43;102364.38;;;7.16;67.17
37298;BME280;30517;51.932;4.278;2023-01-29T15:10:42;102360.91;;;7.17;67.54
37298;BME280;30517;51.932;4.278;2023-01-29T15:13:26;102368.69;;;7.15;67.42
37298;BME280;30517;51.932;4.278;2023-01-29T15:16:16;102347.66;;;7.14;67.21
37298;BME280;30517;51.932;4.278;2023-01-29T15:19:12;102121.84;;;5.84;66.90
37298;BME280;30517;51.932;4.278;2023-01-29T15:22:12;102346.78;;;7.13;67.66
37298;BME280;30517;51.932;4.278;2023-01-29T15:25:26;102346.94;;;7.18;67.38
37298;BME280;30517;51.932;4.278;2023-01-29T15:28:09;102336.31;;;7.15;67.29
37298;BME280;30517;51.932;4.278;2023-01-29T15:30:53;102343.63;;;7.23;67.19
37298;BME280;30517;51.932;4.278;2023-01-29T15:33:35;102348.00;;;7.23;67.19
37298;BME280;30517;51.932;4.278;2023-01-29T15:36:25;102347.16;;;7.24;67.20
37298;BME280;30517;51.932;4.278;2023-01-29T15:42:03;102332.25;;;7.23;67.63
37298;BME280;30517;51.932;4.278;2023-01-29T15:44:44;102309.69;;;7.04;66.92
37298;BME280;30517;51.932;4.278;2023-01-29T15:47:29;102299.22;;;7.04;67.18
37298;BME280;30517;51.932;4.278;2023-01-29T15:50:11;102325.38;;;7.26;67.33
37298;BME280;30517;51.932;4.278;2023-01-29T15:52:54;102336.72;;;7.25;66.87
37298;BME280;30517;51.932;4.278;2023-01-29T15:55:38;102318.91;;;7.17;67.11
37298;BME280;30517;51.932;4.278;2023-01-29T15:58:23;102338.44;;;7.25;67.04
37298;BME280;30517;51.932;4.278;2023-01-29T16:01:07;102336.72;;;7.25;67.11
37298;BME280;30517;51.932;4.278;2023-01-29T16:03:53;102316.47;;;7.21;67.41
37298;BME280;30517;51.932;4.278;2023-01-29T16:06:36;102334.97;;;7.26;67.35
37298;BME280;30517;51.932;4.278;2023-01-29T16:09:24;102305.59;;;7.11;67.12
37298;BME280;30517;51.932;4.278;2023-01-29T16:12:13;102263.84;;;6.93;67.25
37298;BME280;30517;51.932;4.278;2023-01-29T16:14:54;102289.72;;;7.07;67.06
37298;BME280;30517;51.932;4.278;2023-01-29T16:17:39;102286.84;;;7.00;67.56